createdAt,value
2019-06-08T00:00:18.431Z,99000.70
2019-06-08T00:02:47.624Z,98996.05
2019-06-08T00:05:18.818Z,99005.21
2019-06-08T00:07:47.975Z,99010.73
2019-06-08T00:10:21.104Z,99008.08
2019-06-08T00:12:48.100Z,99006.39
2019-06-08T00:15:18.646Z,99009.42
2019-06-08T00:17:47.783Z,99024.79
2019-06-08T00:20:17.694Z,99021.98
2019-06-08T00:22:46.825Z,99032.68
2019-06-08T00:25:16.001Z,99032.01
2019-06-08T00:27:45.036Z,99036.69
2019-06-08T00:30:14.181Z,99046.73
2019-06-08T00:32:43.282Z,99056.58
2019-06-08T00:35:12.403Z,99065.63
2019-06-08T00:37:41.471Z,99061.77
2019-06-08T00:40:10.558Z,99080.83
2019-06-08T00:42:39.659Z,99073.06
2019-06-08T00:45:08.782Z,99072.45
2019-06-08T00:47:47.424Z,99078.56
2019-06-08T00:50:08.727Z,99085.09
2019-06-08T00:52:37.823Z,99093.07
2019-06-08T00:55:06.988Z,99094.91
2019-06-08T00:57:36.052Z,99100.76
2019-06-08T01:00:10.639Z,99093.91
2019-06-08T01:02:36.369Z,99116.26
2019-06-08T01:05:05.769Z,99110.05
2019-06-08T01:07:34.828Z,99111.94
2019-06-08T01:10:04.062Z,99124.30
2019-06-08T01:12:33.102Z,99119.97
2019-06-08T01:15:02.539Z,99115.28
2019-06-08T01:17:31.811Z,99116.28
2019-06-08T01:20:01.465Z,99124.98
2019-06-08T01:22:30.578Z,99140.53
2019-06-08T01:24:59.633Z,99123.30
2019-06-08T01:27:30.111Z,99125.48
2019-06-08T01:29:59.160Z,99146.03
2019-06-08T01:32:28.586Z,99152.73
2019-06-08T01:34:57.643Z,99147.56
2019-06-08T01:37:27.014Z,99147.91
2019-06-08T01:39:56.195Z,99163.41
2019-06-08T01:42:25.551Z,99180.59
2019-06-08T01:44:54.646Z,99192.10
2019-06-08T01:47:24.596Z,99194.80
2019-06-08T01:49:53.660Z,99198.96
2019-06-08T01:52:22.785Z,99195.39
2019-06-08T01:54:51.843Z,99204.22
2019-06-08T01:57:20.904Z,99201.39
2019-06-08T01:59:49.989Z,99194.97
2019-06-08T02:02:19.078Z,99195.45
2019-06-08T02:04:48.125Z,99197.27
2019-06-08T02:07:17.206Z,99196.27
2019-06-08T02:09:46.230Z,99203.24
2019-06-08T02:12:15.328Z,99215.48
2019-06-08T02:14:44.358Z,99225.20
2019-06-08T02:17:13.417Z,99220.89
2019-06-08T02:19:42.492Z,99225.80
2019-06-08T02:22:12.612Z,99210.66
2019-06-08T02:24:41.732Z,99209.25
2019-06-08T02:27:10.779Z,99227.50
2019-06-08T02:29:39.968Z,99221.30
2019-06-08T02:32:09.092Z,99227.30
2019-06-08T02:34:38.519Z,99217.41
2019-06-08T02:37:07.565Z,99228.30
2019-06-08T02:39:38.426Z,99221.36
2019-06-08T02:42:07.555Z,99215.92
2019-06-08T02:44:36.726Z,99215.65
2019-06-08T02:47:05.816Z,99210.27
2019-06-08T02:49:35.396Z,99220.80
2019-06-08T02:52:04.684Z,99216.31
2019-06-08T02:54:35.380Z,99220.80
2019-06-08T02:57:05.252Z,99232.19
2019-06-08T02:59:38.583Z,99229.56
2019-06-08T03:02:09.527Z,99232.42
2019-06-08T03:04:41.114Z,99232.55
2019-06-08T03:07:10.894Z,99237.05
2019-06-08T03:09:41.003Z,99236.98
2019-06-08T03:12:11.748Z,99140.81
2019-06-08T03:14:42.079Z,99242.52
2019-06-08T03:17:11.181Z,99240.56
2019-06-08T03:19:41.782Z,99251.94
2019-06-08T03:22:12.315Z,99260.05
2019-06-08T03:24:42.163Z,99260.95
2019-06-08T03:27:12.234Z,99248.14
2019-06-08T03:29:42.150Z,99247.88
2019-06-08T03:32:13.217Z,99266.91
2019-06-08T03:35:28.737Z,99259.20
2019-06-08T03:38:04.735Z,99272.88
2019-06-08T03:40:51.624Z,99271.62
2019-06-08T03:43:23.047Z,99279.67
2019-06-08T03:45:54.979Z,99286.80
2019-06-08T03:48:29.088Z,99285.89
2019-06-08T03:50:58.944Z,99283.35
2019-06-08T03:53:28.063Z,99278.02
2019-06-08T03:55:57.153Z,99292.34
2019-06-08T03:58:26.208Z,99295.41
2019-06-08T04:00:55.299Z,99296.97
2019-06-08T04:03:24.347Z,99304.81
2019-06-08T04:05:53.374Z,99310.66
2019-06-08T04:08:22.393Z,99325.76
2019-06-08T04:10:51.449Z,99330.94
2019-06-08T04:13:20.479Z,99327.22
2019-06-08T04:15:50.272Z,99341.33
2019-06-08T04:18:21.455Z,99336.55
2019-06-08T04:20:51.559Z,99336.02
2019-06-08T04:23:20.886Z,99343.88
2019-06-08T04:25:50.620Z,99340.77
2019-06-08T04:28:19.769Z,99352.30
2019-06-08T04:30:49.841Z,99344.36
2019-06-08T04:33:19.195Z,99340.77
2019-06-08T04:35:48.249Z,99346.71
2019-06-08T04:38:17.274Z,99341.00
2019-06-08T04:40:48.033Z,99339.88
2019-06-08T04:43:17.063Z,99351.25
2019-06-08T04:45:48.074Z,99358.52
2019-06-08T04:48:16.922Z,99357.22
2019-06-08T04:50:48.020Z,99362.70
2019-06-08T04:53:16.784Z,99368.23
2019-06-08T04:55:47.101Z,99373.86
2019-06-08T04:58:16.259Z,99380.45
2019-06-08T05:00:46.312Z,99363.84
2019-06-08T05:03:16.140Z,99390.00
2019-06-08T05:05:45.398Z,99392.17
2019-06-08T05:08:14.388Z,99391.41
2019-06-08T05:10:45.163Z,99395.90
2019-06-08T05:13:14.400Z,99405.55
2019-06-08T05:15:43.568Z,99408.67
2019-06-08T05:18:12.707Z,99410.14
2019-06-08T05:20:44.033Z,99414.87
2019-06-08T05:23:12.852Z,99400.60
2019-06-08T05:25:43.122Z,99415.50
2019-06-08T05:28:12.333Z,99419.33
2019-06-08T05:30:41.447Z,99422.90
2019-06-08T05:33:10.544Z,99435.63
2019-06-08T05:35:39.556Z,99428.07
2019-06-08T05:38:08.571Z,99433.08
2019-06-08T05:40:37.873Z,99440.61
2019-06-08T05:43:06.971Z,99446.72
2019-06-08T05:45:36.053Z,99446.61
2019-06-08T05:48:05.267Z,99447.43
2019-06-08T05:50:34.848Z,99451.68
2019-06-08T05:53:03.953Z,99452.05
2019-06-08T05:55:33.122Z,99457.98
2019-06-08T05:58:02.273Z,99449.48
2019-06-08T06:00:31.523Z,99448.01
2019-06-08T06:03:00.571Z,99459.42
2019-06-08T06:05:29.640Z,99456.70
2019-06-08T06:07:58.733Z,99460.12
2019-06-08T06:10:27.823Z,99465.30
2019-06-08T06:12:56.923Z,99460.36
2019-06-08T06:15:25.980Z,99461.19
2019-06-08T06:17:55.107Z,99461.83
2019-06-08T06:20:24.193Z,99473.34
2019-06-08T06:22:53.262Z,99473.77
2019-06-08T06:25:22.402Z,99477.79
2019-06-08T06:27:51.786Z,99475.60
2019-06-08T06:30:20.860Z,99487.12
2019-06-08T06:32:50.235Z,99486.86
2019-06-08T06:35:19.263Z,99489.02
2019-06-08T06:37:48.376Z,99496.50
2019-06-08T06:40:17.423Z,99491.75
2019-06-08T06:42:47.913Z,99505.40
2019-06-08T06:45:17.058Z,99507.72
2019-06-08T06:47:46.472Z,99494.76
2019-06-08T06:50:15.553Z,99490.22
2019-06-08T06:52:44.846Z,99496.05
2019-06-08T06:55:13.811Z,99491.70
2019-06-08T06:57:43.558Z,99495.17
2019-06-08T07:00:12.593Z,99487.56
2019-06-08T07:02:41.663Z,99500.22
2019-06-08T07:05:10.698Z,99493.84
2019-06-08T07:07:39.744Z,99488.48
2019-06-08T07:10:09.322Z,99486.90
2019-06-08T07:12:38.481Z,99487.23
2019-06-08T07:15:07.570Z,99496.36
2019-06-08T07:17:36.619Z,99493.61
2019-06-08T07:20:06.641Z,99497.96
2019-06-08T07:22:35.804Z,99517.62
2019-06-08T07:25:05.112Z,99527.09
2019-06-08T07:27:34.271Z,99518.62
2019-06-08T07:30:03.526Z,99521.95
2019-06-08T07:32:32.752Z,99541.61
2019-06-08T07:35:01.804Z,99539.08
2019-06-08T07:37:30.972Z,99534.76
2019-06-08T07:40:00.313Z,99545.69
2019-06-08T07:42:29.447Z,99551.33
2019-06-08T07:45:00.244Z,99542.98
2019-06-08T07:47:29.762Z,99547.42
2019-06-08T07:49:59.576Z,99539.80
2019-06-08T07:52:28.732Z,99548.91
2019-06-08T07:54:58.567Z,99540.48
2019-06-08T07:57:27.705Z,99541.22
2019-06-08T07:59:56.835Z,99539.66
2019-06-08T08:02:25.888Z,99550.88
2019-06-08T08:04:56.603Z,99542.93
2019-06-08T08:07:25.861Z,99546.77
2019-06-08T08:09:54.989Z,99556.97
2019-06-08T08:12:24.039Z,99544.75
2019-06-08T08:14:53.407Z,99543.24
2019-06-08T08:17:22.586Z,99559.80
2019-06-08T08:19:53.018Z,99563.97
2019-06-08T08:22:26.276Z,99567.92
2019-06-08T08:24:55.406Z,99562.25
2019-06-08T08:27:23.801Z,99560.09
2019-06-08T08:29:53.261Z,99548.16
2019-06-08T08:32:23.883Z,99554.84
2019-06-08T08:34:53.817Z,99568.55
2019-06-08T08:37:22.852Z,99562.07
2019-06-08T08:39:51.970Z,99553.23
2019-06-08T08:42:21.153Z,99563.91
2019-06-08T08:44:51.560Z,99581.54
2019-06-08T08:47:21.092Z,99580.98
2019-06-08T08:49:51.120Z,99581.98
2019-06-08T08:52:33.784Z,99579.77
2019-06-08T08:54:54.193Z,99582.45
2019-06-08T08:57:23.836Z,99582.27
2019-06-08T08:59:56.027Z,99579.98
2019-06-08T09:02:24.981Z,99586.92
2019-06-08T09:04:55.225Z,99591.48
2019-06-08T09:07:24.336Z,99595.13
2019-06-08T09:09:53.593Z,99593.70
2019-06-08T09:12:22.576Z,99591.64
2019-06-08T09:14:54.244Z,99611.61
2019-06-08T09:17:23.862Z,99601.55
2019-06-08T09:19:53.993Z,99606.52
2019-06-08T09:22:25.088Z,99610.95
2019-06-08T09:24:54.984Z,99606.45
2019-06-08T09:27:24.887Z,99602.02
2019-06-08T09:29:54.983Z,99601.64
2019-06-08T09:32:28.199Z,99605.50
2019-06-08T09:35:02.334Z,99610.14
2019-06-08T09:37:28.796Z,99600.71
2019-06-08T09:39:58.915Z,99619.08
2019-06-08T09:42:29.865Z,99618.48
2019-06-08T09:45:01.981Z,99614.13
2019-06-08T09:47:29.814Z,99614.63
2019-06-08T09:50:02.486Z,99624.69
2019-06-08T09:52:30.340Z,99621.19
2019-06-08T09:55:02.839Z,99614.42
2019-06-08T09:57:30.268Z,99614.92
2019-06-08T10:00:02.399Z,99616.78
2019-06-08T10:02:31.470Z,99619.44
2019-06-08T10:05:02.377Z,99626.68
2019-06-08T10:07:31.487Z,99632.08
2019-06-08T10:10:02.721Z,99631.89
2019-06-08T10:12:32.542Z,99633.53
2019-06-08T10:15:02.837Z,99636.45
2019-06-08T10:17:32.065Z,99634.66
2019-06-08T10:20:03.399Z,99633.04
2019-06-08T10:22:33.064Z,99629.41
2019-06-08T10:25:05.362Z,99631.23
2019-06-08T10:27:32.918Z,99641.22
2019-06-08T10:30:04.307Z,99632.83
2019-06-08T10:32:33.905Z,99638.80
2019-06-08T10:35:05.357Z,99644.98
2019-06-08T10:37:33.776Z,99649.34
2019-06-08T10:40:05.445Z,99642.63
2019-06-08T10:42:35.058Z,99657.75
2019-06-08T10:45:08.130Z,99657.36
2019-06-08T10:47:37.725Z,99653.44
2019-06-08T10:50:12.749Z,99653.28
2019-06-08T10:52:39.139Z,99656.61
2019-06-08T10:55:10.427Z,99668.44
2019-06-08T10:57:39.131Z,99681.87
2019-06-08T11:00:19.561Z,99671.23
2019-06-08T11:02:40.826Z,99671.84
2019-06-08T11:05:13.615Z,99669.09
2019-06-08T11:07:40.586Z,99661.95
2019-06-08T11:10:12.132Z,99657.22
2019-06-08T11:12:41.650Z,99669.65
2019-06-08T11:15:11.871Z,99667.20
2019-06-08T11:17:41.025Z,99686.09
2019-06-08T11:20:11.830Z,99681.30
2019-06-08T11:22:42.299Z,99684.52
2019-06-08T11:25:15.990Z,99682.41
2019-06-08T11:27:42.177Z,99682.33
2019-06-08T11:30:20.102Z,99680.89
2019-06-08T11:32:43.029Z,99684.95
2019-06-08T11:35:12.632Z,99684.94
2019-06-08T11:37:41.821Z,99692.63
2019-06-08T11:40:12.582Z,99695.02
2019-06-08T11:42:41.660Z,99689.21
2019-06-08T11:45:12.559Z,99689.91
2019-06-08T11:47:41.497Z,99684.16
2019-06-08T11:50:13.073Z,99672.71
2019-06-08T11:52:41.432Z,99688.59
2019-06-08T11:55:12.903Z,99681.96
2019-06-08T11:57:41.306Z,99681.34
2019-06-08T12:00:24.269Z,99677.66
2019-06-08T12:02:43.078Z,99673.37
2019-06-08T12:05:14.164Z,99677.12
2019-06-08T12:07:42.908Z,99687.86
2019-06-08T12:10:12.970Z,99677.68
2019-06-08T12:12:43.957Z,99694.05
2019-06-08T12:15:13.760Z,99677.67
2019-06-08T12:17:43.825Z,99671.10
2019-06-08T12:20:17.064Z,99674.13
2019-06-08T12:22:45.196Z,99672.30
2019-06-08T12:25:14.267Z,99672.55
2019-06-08T12:27:43.351Z,99675.50
2019-06-08T12:30:19.483Z,99667.99
2019-06-08T12:32:49.740Z,99686.01
2019-06-08T12:35:18.770Z,99682.88
2019-06-08T12:37:51.453Z,99566.70
2019-06-08T12:40:20.934Z,99684.09
2019-06-08T12:42:51.298Z,99676.42
2019-06-08T12:45:20.525Z,99678.96
2019-06-08T12:47:49.589Z,99676.64
2019-06-08T12:50:19.961Z,99682.92
2019-06-08T12:52:49.123Z,99683.36
2019-06-08T12:55:23.193Z,99684.93
2019-06-08T12:57:51.685Z,99678.47
2019-06-08T13:00:21.510Z,99680.61
2019-06-08T13:02:52.222Z,99678.00
2019-06-08T13:05:22.995Z,99673.47
2019-06-08T13:07:52.074Z,99679.06
2019-06-08T13:10:24.041Z,99671.80
2019-06-08T13:12:52.013Z,99678.48
2019-06-08T13:15:22.022Z,99679.37
2019-06-08T13:17:51.232Z,99676.26
2019-06-08T13:20:22.512Z,99670.19
2019-06-08T13:22:51.663Z,99681.63
2019-06-08T13:25:35.766Z,99685.45
2019-06-08T13:27:51.495Z,99680.00
2019-06-08T13:30:25.881Z,99698.72
2019-06-08T13:32:51.239Z,99688.60
2019-06-08T13:35:22.335Z,99693.27
2019-06-08T13:37:51.098Z,99684.89
2019-06-08T13:40:23.473Z,99688.43
2019-06-08T13:42:51.332Z,99687.08
2019-06-08T13:45:22.113Z,99679.35
2019-06-08T13:47:51.209Z,99674.73
2019-06-08T13:50:22.138Z,99672.55
2019-06-08T13:52:51.852Z,99682.91
2019-06-08T13:55:42.588Z,99672.34
2019-06-08T13:57:51.690Z,99679.63
2019-06-08T14:00:32.158Z,99675.03
2019-06-08T14:03:02.368Z,99681.67
2019-06-08T14:05:31.574Z,99688.33
2019-06-08T14:08:00.653Z,99677.88
2019-06-08T14:10:35.426Z,99673.31
2019-06-08T14:13:05.079Z,99680.49
2019-06-08T14:15:34.095Z,99685.80
2019-06-08T14:18:03.189Z,99688.84
2019-06-08T14:20:34.286Z,99691.09
2019-06-08T14:23:03.052Z,99690.27
2019-06-08T14:25:46.936Z,99677.61
2019-06-08T14:28:03.039Z,99686.98
2019-06-08T14:30:33.258Z,99687.86
2019-06-08T14:33:02.565Z,99687.06
2019-06-08T14:35:31.697Z,99689.27
2019-06-08T14:38:00.760Z,99696.53
2019-06-08T14:40:32.675Z,99685.89
2019-06-08T14:43:00.556Z,99685.07
2019-06-08T14:45:31.026Z,99685.16
2019-06-08T14:48:00.365Z,99686.30
2019-06-08T14:50:31.180Z,99687.05
2019-06-08T14:53:00.363Z,99690.02
2019-06-08T14:55:33.684Z,99694.19
2019-06-08T14:58:00.184Z,99685.45
2019-06-08T15:00:29.748Z,99691.16
2019-06-08T15:02:59.303Z,99693.50
2019-06-08T15:05:31.849Z,99691.41
2019-06-08T15:08:00.875Z,99690.00
2019-06-08T15:10:31.345Z,99683.55
2019-06-08T15:13:01.562Z,99689.19
2019-06-08T15:15:32.176Z,99684.52
2019-06-08T15:18:04.823Z,99682.42
2019-06-08T15:20:32.814Z,99686.06
2019-06-08T15:23:01.867Z,99680.53
2019-06-08T15:25:32.757Z,99677.06
2019-06-08T15:28:01.676Z,99678.45
2019-06-08T15:30:31.508Z,99676.61
2019-06-08T15:33:01.529Z,99674.48
2019-06-08T15:35:31.390Z,99680.19
2019-06-08T15:38:00.407Z,99674.08
2019-06-08T15:40:29.875Z,99664.14
2019-06-08T15:42:58.969Z,99668.92
2019-06-08T15:45:30.897Z,99670.28
2019-06-08T15:47:58.882Z,99656.05
2019-06-08T15:50:28.399Z,99654.19
2019-06-08T15:53:00.030Z,99655.59
2019-06-08T15:55:31.217Z,99653.62
2019-06-08T15:57:59.214Z,99655.66
2019-06-08T16:00:31.261Z,99660.20
2019-06-08T16:02:59.227Z,99662.01
2019-06-08T16:05:29.550Z,99662.16
2019-06-08T16:07:58.751Z,99659.71
2019-06-08T16:10:28.113Z,99663.94
2019-06-08T16:12:57.234Z,99662.83
2019-06-08T16:15:26.845Z,99659.73
2019-06-08T16:17:55.962Z,99663.23
2019-06-08T16:20:25.403Z,99666.06
2019-06-08T16:22:54.479Z,99656.23
2019-06-08T16:25:23.572Z,99662.58
2019-06-08T16:27:52.735Z,99666.42
2019-06-08T16:30:21.906Z,99661.55
2019-06-08T16:32:51.546Z,99668.37
2019-06-08T16:35:20.571Z,99667.53
2019-06-08T16:37:49.671Z,99669.03
2019-06-08T16:40:18.725Z,99671.64
2019-06-08T16:42:47.803Z,99666.70
2019-06-08T16:45:17.097Z,99665.11
2019-06-08T16:47:46.157Z,99667.41
2019-06-08T16:50:24.171Z,99665.39
2019-06-08T16:52:46.092Z,99669.55
2019-06-08T16:55:15.138Z,99665.17
2019-06-08T16:57:44.177Z,99669.44
2019-06-08T17:02:44.099Z,99669.40
2019-06-08T17:05:13.593Z,99663.75
2019-06-08T17:07:42.659Z,99671.02
2019-06-08T17:10:11.800Z,99673.41
2019-06-08T17:12:40.863Z,99669.22
2019-06-08T17:15:10.313Z,99665.81
2019-06-08T17:17:40.526Z,99667.88
2019-06-08T17:20:09.717Z,99669.36
2019-06-08T17:22:39.208Z,99671.84
2019-06-08T17:25:08.715Z,99662.38
2019-06-08T17:27:38.944Z,99662.36
2019-06-08T17:30:09.226Z,99661.66
2019-06-08T17:32:39.276Z,99663.23
2019-06-08T17:35:09.251Z,99663.25
2019-06-08T17:37:38.294Z,99667.26
2019-06-08T17:40:07.824Z,99666.36
2019-06-08T17:42:37.622Z,99665.61
2019-06-08T17:45:06.887Z,99661.14
2019-06-08T17:47:36.399Z,99665.02
2019-06-08T17:50:05.770Z,99667.97
2019-06-08T17:52:34.935Z,99663.84
2019-06-08T17:55:04.137Z,99665.89
2019-06-08T17:57:47.333Z,99666.53
2019-06-08T18:00:04.435Z,99668.06
2019-06-08T18:02:33.566Z,99663.81
2019-06-08T18:05:02.656Z,99665.27
2019-06-08T18:07:31.910Z,99664.27
2019-06-08T18:10:01.203Z,99666.50
2019-06-08T18:12:30.457Z,99673.66
2019-06-08T18:14:59.562Z,99675.80
2019-06-08T18:17:28.655Z,99677.12
2019-06-08T18:19:59.865Z,99671.43
2019-06-08T18:22:29.030Z,99680.87
2019-06-08T18:24:58.312Z,99672.98
2019-06-08T18:27:27.825Z,99678.42
2019-06-08T18:29:58.189Z,99683.10
2019-06-08T18:32:27.310Z,99689.47
2019-06-08T18:34:57.267Z,99691.66
2019-06-08T18:37:28.460Z,99686.86
2019-06-08T18:39:58.690Z,99678.48
2019-06-08T18:42:27.814Z,99686.89
2019-06-08T18:44:58.260Z,99679.89
2019-06-08T18:47:27.511Z,99684.64
2019-06-08T18:49:57.432Z,99687.21
2019-06-08T18:52:28.216Z,99683.02
2019-06-08T18:54:57.884Z,99686.92
2019-06-08T18:57:27.814Z,99680.37
2019-06-08T18:59:59.736Z,99685.77
2019-06-08T19:02:28.801Z,99686.13
2019-06-08T19:04:57.953Z,99688.16
2019-06-08T19:07:28.351Z,99700.73
2019-06-08T19:09:59.004Z,99697.87
2019-06-08T19:12:28.138Z,99701.89
2019-06-08T19:14:58.617Z,99704.73
2019-06-08T19:17:28.469Z,99707.02
2019-06-08T19:19:58.635Z,99704.41
2019-06-08T19:22:30.198Z,99708.45
2019-06-08T19:24:58.675Z,99709.88
2019-06-08T19:27:27.854Z,99716.72
2019-06-08T19:29:57.754Z,99723.97
2019-06-08T19:32:28.015Z,99721.19
2019-06-08T19:34:57.936Z,99722.38
2019-06-08T19:37:28.715Z,99726.47
2019-06-08T19:39:59.746Z,99723.17
2019-06-08T19:42:39.479Z,99722.36
2019-06-08T19:45:05.222Z,99724.46
2019-06-08T19:47:30.697Z,99728.66
2019-06-08T19:50:00.727Z,99735.36
2019-06-08T19:52:29.917Z,99739.60
2019-06-08T19:54:59.013Z,99744.02
2019-06-08T19:57:28.399Z,99748.27
2019-06-08T20:00:00.057Z,99751.92
2019-06-08T20:02:28.624Z,99752.02
2019-06-08T20:04:57.769Z,99754.75
2019-06-08T20:07:27.999Z,99758.73
2019-06-08T20:09:57.223Z,99764.40
2019-06-08T20:12:28.147Z,99767.26
2019-06-08T20:14:57.729Z,99768.59
2019-06-08T20:17:28.347Z,99775.65
2019-06-08T20:19:58.704Z,99784.14
2019-06-08T20:22:27.828Z,99783.53
2019-06-08T20:24:57.052Z,99782.33
2019-06-08T20:27:27.673Z,99787.98
2019-06-08T20:29:58.256Z,99797.27
2019-06-08T20:32:28.184Z,99801.13
2019-06-08T20:34:57.587Z,99801.98
2019-06-08T20:37:28.221Z,99799.80
2019-06-08T20:40:09.373Z,99812.13
2019-06-08T20:42:29.470Z,99819.63
2019-06-08T20:44:58.563Z,99819.97
2019-06-08T20:47:27.785Z,99822.94
2019-06-08T20:49:58.344Z,99829.17
2019-06-08T20:52:28.331Z,99826.51
2019-06-08T20:54:58.257Z,99827.98
2019-06-08T20:57:27.458Z,99825.44
2019-06-08T20:59:58.046Z,99831.33
2019-06-08T21:02:28.477Z,99838.72
2019-06-08T21:04:59.500Z,99837.21
2019-06-08T21:07:28.757Z,99830.33
2019-06-08T21:09:59.036Z,99833.27
2019-06-08T21:12:28.424Z,99837.05
2019-06-08T21:14:57.672Z,99836.70
2019-06-08T21:17:27.576Z,99844.91
2019-06-08T21:19:57.999Z,99844.00
2019-06-08T21:22:27.853Z,99841.14
2019-06-08T21:24:59.851Z,99844.16
2019-06-08T21:27:27.969Z,99843.36
2019-06-08T21:30:06.825Z,99852.41
2019-06-08T21:32:29.087Z,99851.23
2019-06-08T21:35:00.192Z,99856.05
2019-06-08T21:37:29.024Z,99860.05
2019-06-08T21:40:03.851Z,99860.81
2019-06-08T21:42:30.304Z,99859.77
2019-06-08T21:45:01.478Z,99691.84
2019-06-08T21:47:30.200Z,99862.51
2019-06-08T21:50:00.612Z,99857.36
2019-06-08T21:52:29.692Z,99858.92
2019-06-08T21:54:59.393Z,99860.02
2019-06-08T21:57:29.690Z,99861.05
2019-06-08T22:00:13.929Z,99863.00
2019-06-08T22:02:29.664Z,99854.91
2019-06-08T22:05:03.306Z,99855.03
2019-06-08T22:07:33.730Z,99865.33
2019-06-08T22:10:04.359Z,99860.25
2019-06-08T22:12:36.661Z,99865.45
2019-06-08T22:15:04.520Z,99866.27
2019-06-08T22:17:33.691Z,99865.91
2019-06-08T22:20:03.450Z,99866.82
2019-06-08T22:22:32.659Z,99866.03
2019-06-08T22:25:01.820Z,99862.91
2019-06-08T22:27:30.925Z,99861.18
2019-06-08T22:30:01.275Z,99859.61
2019-06-08T22:32:30.850Z,99856.43
2019-06-08T22:35:01.630Z,99860.25
2019-06-08T22:37:30.892Z,99870.54
2019-06-08T22:40:01.051Z,99864.13
2019-06-08T22:42:30.950Z,99851.52
2019-06-08T22:45:00.820Z,99855.52
2019-06-08T22:47:30.873Z,99856.02
2019-06-08T22:50:00.892Z,99858.14
2019-06-08T22:52:30.857Z,99857.78
2019-06-08T22:55:04.855Z,99859.23
2019-06-08T22:57:30.797Z,99862.16
2019-06-08T23:00:01.922Z,99853.95
2019-06-08T23:02:30.626Z,99860.12
2019-06-08T23:05:02.659Z,99855.22
2019-06-08T23:07:32.787Z,99846.57
2019-06-08T23:10:04.153Z,99847.28
2019-06-08T23:12:33.506Z,99850.07
2019-06-08T23:15:03.880Z,99848.27
2019-06-08T23:17:33.489Z,99843.56
2019-06-08T23:20:03.631Z,99847.80
2019-06-08T23:22:32.675Z,99843.09
2019-06-08T23:25:03.327Z,99833.69
2019-06-08T23:27:32.561Z,99831.73
2019-06-08T23:30:02.240Z,99825.95
2019-06-08T23:32:32.509Z,99820.03
2019-06-08T23:35:02.874Z,99827.73
2019-06-08T23:37:31.974Z,99825.77
2019-06-08T23:40:02.191Z,99823.61
2019-06-08T23:42:31.802Z,99825.67
2019-06-08T23:45:02.189Z,99829.16
2019-06-08T23:47:31.430Z,99830.73
2019-06-08T23:50:02.065Z,99675.54
2019-06-08T23:52:31.308Z,99837.66
2019-06-08T23:55:02.147Z,99848.05
2019-06-08T23:57:31.175Z,99836.23
